createdAt,value
2023-03-23T16:00:51.122Z,2.30
2023-03-23T16:06:03.510Z,2.50
2023-03-23T16:11:13.689Z,2.22
2023-03-23T16:16:26.590Z,2.75
2023-03-23T16:21:33.687Z,2.60
2023-03-23T16:26:42.590Z,2.50
2023-03-23T16:31:49.660Z,3.03
2023-03-23T16:36:56.598Z,2.92
2023-03-23T16:42:04.713Z,2.90
2023-03-23T16:47:11.247Z,3.40
2023-03-23T16:52:18.050Z,3.47
2023-03-23T16:57:26.680Z,3.83
2023-03-23T17:02:33.527Z,3.55
2023-03-23T17:07:41.267Z,3.72
2023-03-23T17:12:49.407Z,3.28
2023-03-23T17:17:56.746Z,4.30
2023-03-23T17:23:04.885Z,3.35
2023-03-23T17:28:14.001Z,3.30
2023-03-23T17:33:21.040Z,3.78
2023-03-23T17:38:28.139Z,3.92
2023-03-23T17:43:38.176Z,3.35
2023-03-23T17:48:46.515Z,3.83
2023-03-23T17:53:58.036Z,4.10
2023-03-23T17:59:08.804Z,4.10
2023-03-23T18:04:18.601Z,4.60
2023-03-23T18:09:30.829Z,11.43
2023-03-23T18:14:42.075Z,11.45
2023-03-23T18:19:50.307Z,13.10
2023-03-23T18:24:59.676Z,14.60
2023-03-23T18:30:13.143Z,14.30
2023-03-23T18:35:28.082Z,8.55
2023-03-23T18:40:38.754Z,7.43
2023-03-23T18:45:54.270Z,6.35
2023-03-23T18:51:10.095Z,5.43
2023-03-23T18:56:20.587Z,4.30
2023-03-23T19:01:32.190Z,5.00
2023-03-23T19:06:43.040Z,4.03
2023-03-23T19:11:53.555Z,4.35
2023-03-23T19:17:07.832Z,5.00
2023-03-23T19:22:17.752Z,3.75
2023-03-23T19:27:28.640Z,3.95
2023-03-23T19:32:40.880Z,3.38
2023-03-23T19:37:51.897Z,3.65
2023-03-23T19:43:05.463Z,3.70
2023-03-23T19:48:18.169Z,4.13
2023-03-23T19:53:39.289Z,4.40
2023-03-23T19:58:51.925Z,5.22
2023-03-23T20:04:07.701Z,4.90
2023-03-23T20:09:21.748Z,3.80
2023-03-23T20:14:32.243Z,4.22
2023-03-23T20:19:45.190Z,4.30
2023-03-23T20:24:54.861Z,3.20
2023-03-23T20:30:06.236Z,3.25
2023-03-23T20:35:23.357Z,2.88
2023-03-23T20:40:32.482Z,2.10
2023-03-23T20:45:44.924Z,2.55
2023-03-23T20:50:55.379Z,2.00
2023-03-23T20:56:07.628Z,3.47
2023-03-23T21:01:22.440Z,2.60
2023-03-23T21:06:34.388Z,1.83
2023-03-23T21:11:43.076Z,1.83
2023-03-23T21:16:52.494Z,2.05
2023-03-23T21:22:02.894Z,1.40
2023-03-23T21:27:09.523Z,1.90
2023-03-23T21:32:16.958Z,1.95
2023-03-23T21:37:25.005Z,1.98
2023-03-23T21:42:31.836Z,2.25
2023-03-23T21:47:39.665Z,1.95
2023-03-23T21:52:51.248Z,2.65
2023-03-23T21:57:58.412Z,2.58
2023-03-23T22:03:05.448Z,2.38
2023-03-23T22:08:14.944Z,3.00
2023-03-23T22:13:21.560Z,3.63
2023-03-23T22:18:28.624Z,2.17
2023-03-23T22:23:37.121Z,2.35
2023-03-23T22:28:43.870Z,2.70
2023-03-23T22:33:54.446Z,2.50
2023-03-23T22:39:04.011Z,2.60
2023-03-23T22:44:15.614Z,3.08
2023-03-23T22:49:22.261Z,2.95
2023-03-23T22:54:31.076Z,4.22
2023-03-23T22:59:37.644Z,3.72
2023-03-23T23:04:44.384Z,3.60
2023-03-23T23:09:52.455Z,3.80
2023-03-23T23:14:59.460Z,3.90
2023-03-23T23:20:07.199Z,3.35
2023-03-23T23:25:15.014Z,4.18
2023-03-23T23:30:21.586Z,3.38
2023-03-23T23:35:28.784Z,3.50
2023-03-23T23:40:36.769Z,3.38
2023-03-23T23:45:43.594Z,3.10
2023-03-23T23:50:52.535Z,2.85
2023-03-23T23:56:03.955Z,3.05
